KCLS/CLS METAR and TAF weather

Enter ICAO airport designator
Station Type Date Time Source
KCLS METAR 2020/04/07 04:35 UTC NOAA

KCLS 070435Z AUTO 00000KT 10SM CLR 09/01 A3007 RMK AO2


Station Type Date Time Source
KCLS Decoded METAR 2020/04/07 04:35 UTC NOAA

Station name not available
Apr 07, 2020 - 12:35 AM EDT / 2020.04.07 0435 UTC
Wind: Calm:0
Visibility: 10 mile(s):0
Sky conditions: clear
Temperature: 48 F (9 C)
Dew Point: 33 F (1 C)
Relative Humidity: 57%
Pressure (altimeter): 30.07 in. Hg (1018 hPa)
ob: KCLS 070435Z AUTO 00000KT 10SM CLR 09/01 A3007 RMK AO2
cycle: 4

Station Type Date Time Source
KCLS TAF UTC NOAA

Error!

Example: see airport list